Time;durP1;ratioP1;P1;durP2;ratioP2;P2;SDS_P1;SDS_P2;PMS_P1;PMS_P2;Temp;Humidity;BMP_temperature;BMP_pressure;BME280_temperature;BME280_humidity;BME280_pressure;Samples;Min_cycle;Max_cycle;Signal;HPM_P1;HPM_P2
2021/05/03 00:00:15;;;;;;;10.18;6.60;;;;;;;7.22;63.83;96872.48;1795678;78;25749;-87
2021/05/03 00:02:44;;;;;;;9.78;6.58;;;;;;;7.25;63.90;96867.20;1798144;78;25986;-83
2021/05/03 00:05:25;;;;;;;7.37;6.15;;;;;;;7.23;63.80;96873.31;1811756;78;26111;-83
2021/05/03 00:07:53;;;;;;;8.73;6.72;;;;;;;7.19;63.90;96881.45;1783864;78;25765;-84
2021/05/03 00:10:21;;;;;;;9.48;7.28;;;;;;;7.12;63.91;96876.59;1815467;78;25736;-82
2021/05/03 00:12:48;;;;;;;7.95;6.20;;;;;;;7.10;63.93;96884.01;1815417;78;25848;-83
2021/05/03 00:15:17;;;;;;;7.37;6.28;;;;;;;7.06;64.07;96884.92;1807182;78;27564;-84
2021/05/03 00:17:45;;;;;;;9.73;6.60;;;;;;;7.05;64.16;96888.63;1810320;78;26332;-83
2021/05/03 00:20:13;;;;;;;9.35;7.30;;;;;;;7.04;64.24;96895.02;1810551;78;25697;-88
2021/05/03 00:22:40;;;;;;;9.68;6.83;;;;;;;7.02;64.34;96896.25;1815416;78;25822;-83
2021/05/03 00:25:08;;;;;;;8.18;6.70;;;;;;;6.97;64.53;96893.36;1815316;78;26122;-84
2021/05/03 00:27:36;;;;;;;8.38;6.67;;;;;;;6.91;64.63;96888.77;1815585;77;27480;-84
2021/05/03 00:30:06;;;;;;;9.23;6.60;;;;;;;6.85;65.16;96895.27;1813560;77;26129;-84
2021/05/03 00:32:33;;;;;;;8.78;6.78;;;;;;;6.83;65.20;96889.28;1805099;77;25721;-84
2021/05/03 00:35:00;;;;;;;9.13;6.70;;;;;;;6.80;65.40;96887.50;1812520;77;25838;-84
2021/05/03 00:37:27;;;;;;;9.10;7.00;;;;;;;6.80;65.61;96900.40;1815481;78;25710;-83
2021/05/03 00:39:55;;;;;;;9.40;7.03;;;;;;;6.81;65.84;96894.01;1820200;77;27499;-83
2021/05/03 00:42:22;;;;;;;9.25;7.20;;;;;;;6.80;65.92;96902.25;1842528;77;25876;-83
2021/05/03 00:44:51;;;;;;;8.45;6.75;;;;;;;6.82;66.07;96905.06;1842565;77;25668;-83
2021/05/03 00:47:20;;;;;;;8.45;7.30;;;;;;;6.81;66.13;96906.08;1842568;77;25934;-84
2021/05/03 00:49:47;;;;;;;8.88;6.87;;;;;;;6.80;66.23;96911.12;1847422;77;25705;-83
2021/05/03 00:52:14;;;;;;;9.18;7.30;;;;;;;6.82;66.37;96917.64;1832631;77;27494;-83
2021/05/03 00:54:42;;;;;;;7.75;6.40;;;;;;;6.83;66.46;96914.77;1832302;77;25681;-84
2021/05/03 00:57:09;;;;;;;13.55;7.22;;;;;;;6.80;66.36;96909.79;1841859;77;26001;-84
2021/05/03 00:59:37;;;;;;;8.75;7.22;;;;;;;6.74;66.23;96913.28;1844156;77;25829;-84
2021/05/03 01:02:04;;;;;;;8.20;6.22;;;;;;;6.67;66.41;96916.43;1834907;77;25880;-84
2021/05/03 01:04:31;;;;;;;8.80;6.72;;;;;;;6.62;66.35;96914.87;1814346;77;27593;-83
2021/05/03 01:06:59;;;;;;;11.12;7.47;;;;;;;6.63;66.36;96913.85;1836299;77;26119;-83
2021/05/03 01:09:26;;;;;;;8.63;6.55;;;;;;;6.64;66.52;96919.50;1834984;77;25656;-84
2021/05/03 01:11:53;;;;;;;9.08;6.40;;;;;;;6.65;66.66;96915.80;1829829;77;26375;-83
2021/05/03 01:14:21;;;;;;;7.03;5.87;;;;;;;6.67;66.66;96919.63;1812946;77;25884;-83
2021/05/03 01:16:48;;;;;;;6.65;5.53;;;;;;;6.63;66.63;96916.53;1839178;77;28600;-84
2021/05/03 01:19:19;;;;;;;6.12;5.12;;;;;;;6.60;66.76;96914.23;1831677;77;25755;-83
2021/05/03 01:21:45;;;;;;;7.25;5.08;;;;;;;6.60;66.90;96922.28;1828364;77;25677;-84
2021/05/03 01:24:13;;;;;;;5.72;4.87;;;;;;;6.64;67.04;96922.73;1828309;77;25908;-84
2021/05/03 01:26:40;;;;;;;5.62;5.00;;;;;;;6.64;67.30;96922.18;1812520;77;25738;-84
2021/05/03 01:29:07;;;;;;;6.50;5.00;;;;;;;6.64;67.47;96916.82;1808917;77;27589;-85
2021/05/03 01:31:35;;;;;;;5.45;4.25;;;;;;;6.66;67.47;96920.13;1810791;77;25756;-84
2021/05/03 01:34:10;;;;;;;6.97;4.15;;;;;;;6.66;67.25;96909.41;1830689;77;25674;-84
2021/05/03 01:36:41;;;;;;;5.50;3.65;;;;;;;6.67;67.38;96919.11;1832730;77;25724;-84
2021/05/03 01:39:11;;;;;;;4.10;3.47;;;;;;;6.70;67.36;96920.58;1817022;77;25744;-85
2021/05/03 01:41:39;;;;;;;5.92;3.65;;;;;;;6.64;67.19;96920.05;1845694;77;27488;-84
2021/05/03 01:44:10;;;;;;;4.35;3.45;;;;;;;6.59;67.58;96918.45;1841264;77;26362;-86
2021/05/03 01:46:39;;;;;;;5.97;4.22;;;;;;;6.59;67.80;96920.63;1818051;77;25315;-84
2021/05/03 01:49:09;;;;;;;5.08;3.83;;;;;;;6.62;68.03;96924.77;1832005;77;26466;-83
2021/05/03 01:51:39;;;;;;;4.50;3.50;;;;;;;6.57;67.95;96921.33;1818099;77;25819;-83
2021/05/03 01:54:07;;;;;;;4.28;3.20;;;;;;;6.50;68.21;96914.61;1825554;77;27487;-83
2021/05/03 01:56:35;;;;;;;3.40;3.02;;;;;;;6.46;68.13;96928.08;1833379;77;26442;-83
2021/05/03 01:59:06;;;;;;;5.45;3.30;;;;;;;6.48;68.35;96930.56;1842109;77;25656;-83
2021/05/03 02:01:39;;;;;;;4.17;3.35;;;;;;;6.48;68.29;96933.25;1835907;77;26089;-83
2021/05/03 02:04:08;;;;;;;4.80;3.85;;;;;;;6.48;68.28;96930.56;1848861;77;25801;-84
2021/05/03 02:06:38;;;;;;;3.98;3.58;;;;;;;6.46;68.50;96929.93;1826491;77;27497;-84
2021/05/03 02:09:13;;;;;;;4.95;3.67;;;;;;;6.43;68.50;96926.30;1824077;77;25715;-83
2021/05/03 02:11:40;;;;;;;5.33;3.37;;;;;;;6.43;68.61;96926.30;1830199;77;25366;-83
2021/05/03 02:14:09;;;;;;;4.25;3.22;;;;;;;6.38;68.73;96928.76;1818209;77;25845;-85
2021/05/03 02:16:37;;;;;;;4.90;3.25;;;;;;;6.33;68.56;96935.20;1829408;77;26205;-84
2021/05/03 02:19:04;;;;;;;3.20;2.90;;;;;;;6.30;68.56;96941.78;1851751;77;27487;-84
2021/05/03 02:21:31;;;;;;;3.77;3.00;;;;;;;6.30;68.57;96943.63;1847987;77;25735;-83
2021/05/03 02:23:59;;;;;;;3.50;2.87;;;;;;;6.28;68.60;96941.69;1845747;77;25708;-84
2021/05/03 02:26:26;;;;;;;3.75;2.92;;;;;;;6.26;68.41;96941.05;1822082;77;25732;-88
2021/05/03 02:28:53;;;;;;;3.05;2.67;;;;;;;6.24;68.32;96941.75;1818214;77;25747;-83
2021/05/03 02:31:21;;;;;;;3.30;2.83;;;;;;;6.20;68.33;96951.19;1843790;77;27563;-86
2021/05/03 02:33:48;;;;;;;4.42;3.15;;;;;;;6.18;68.26;96953.23;1829882;77;25866;-83
2021/05/03 02:36:18;;;;;;;3.62;3.27;;;;;;;6.07;68.40;96958.62;1841714;77;25796;-84
2021/05/03 02:38:45;;;;;;;2.87;2.67;;;;;;;6.02;68.48;96969.10;1818190;77;25818;-83
2021/05/03 02:41:12;;;;;;;5.00;3.83;;;;;;;5.98;68.51;96966.48;1836315;77;25757;-84
2021/05/03 02:43:39;;;;;;;5.30;4.12;;;;;;;5.94;68.68;96961.18;1842673;77;28509;-84
2021/05/03 02:46:06;;;;;;;4.83;3.37;;;;;;;5.91;68.77;96968.29;1810668;77;25673;-84
2021/05/03 02:48:34;;;;;;;3.72;3.33;;;;;;;5.90;68.70;96965.29;1836590;77;25754;-83
2021/05/03 02:51:01;;;;;;;4.90;3.87;;;;;;;5.91;68.85;96977.16;1842746;77;26325;-85
2021/05/03 02:53:28;;;;;;;5.15;3.55;;;;;;;5.91;68.95;96974.48;1815784;77;25750;-83
2021/05/03 02:55:56;;;;;;;4.37;3.87;;;;;;;5.91;68.85;96969.12;1809603;77;27642;-83
2021/05/03 02:58:23;;;;;;;5.83;4.45;;;;;;;5.92;68.92;96972.59;1832863;77;25817;-85
2021/05/03 03:00:50;;;;;;;5.53;3.77;;;;;;;5.88;69.02;96978.88;1809593;77;25706;-85
2021/05/03 03:03:18;;;;;;;5.00;4.37;;;;;;;5.90;69.07;96986.20;1809507;78;25723;-88
2021/05/03 03:05:45;;;;;;;6.42;4.78;;;;;;;5.91;68.98;96975.81;1840852;77;25788;-84
2021/05/03 03:08:12;;;;;;;6.55;4.90;;;;;;;5.90;69.04;96986.20;1823547;77;28377;-82
2021/05/03 03:10:40;;;;;;;5.87;4.65;;;;;;;5.89;69.01;96989.91;1832271;77;25744;-84
2021/05/03 03:13:07;;;;;;;8.03;5.17;;;;;;;5.86;69.05;96989.42;1842689;77;25840;-83
2021/05/03 03:15:35;;;;;;;6.92;5.28;;;;;;;5.86;69.26;96987.57;1838547;77;25881;-84
2021/05/03 03:18:04;;;;;;;7.08;5.28;;;;;;;5.86;69.22;96996.95;1825258;77;25700;-84
2021/05/03 03:20:32;;;;;;;7.05;5.60;;;;;;;5.89;69.26;97001.12;1827717;77;28465;-83
2021/05/03 03:22:59;;;;;;;6.83;5.22;;;;;;;5.89;69.12;97003.30;1820415;77;25648;-82
2021/05/03 03:25:29;;;;;;;6.53;5.72;;;;;;;5.89;69.10;97005.98;1823112;77;25777;-85
2021/05/03 03:27:57;;;;;;;8.68;6.25;;;;;;;5.91;69.16;97017.34;1843621;77;26410;-85
2021/05/03 03:30:24;;;;;;;9.23;6.47;;;;;;;5.92;69.08;97031.53;1836253;77;25760;-84
2021/05/03 03:32:51;;;;;;;7.03;6.00;;;;;;;5.92;69.05;97024.33;1834938;77;27496;-83
2021/05/03 03:35:20;;;;;;;7.42;6.12;;;;;;;5.94;69.17;97033.00;1838757;77;26738;-85
2021/05/03 03:37:50;;;;;;;8.58;7.12;;;;;;;5.96;69.09;97032.30;1839035;77;25654;-83
2021/05/03 03:40:20;;;;;;;7.62;6.47;;;;;;;5.96;68.99;97038.17;1819147;77;25814;-83
2021/05/03 03:42:48;;;;;;;8.38;6.78;;;;;;;5.98;69.09;97037.48;1850935;77;25677;-83
2021/05/03 03:45:17;;;;;;;9.18;6.67;;;;;;;5.99;69.06;97043.98;1827913;77;27464;-83
2021/05/03 03:47:45;;;;;;;9.35;6.78;;;;;;;6.00;68.98;97048.33;1833080;77;25809;-83
2021/05/03 03:50:13;;;;;;;9.58;6.95;;;;;;;6.00;69.07;97048.33;1832746;77;25690;-83
2021/05/03 03:52:40;;;;;;;9.48;6.55;;;;;;;6.01;69.05;97049.99;1845005;77;26011;-84
2021/05/03 03:55:08;;;;;;;6.60;5.90;;;;;;;6.03;68.93;97048.47;1822303;77;25713;-84
2021/05/03 03:57:36;;;;;;;8.85;6.92;;;;;;;6.03;68.76;97041.26;1831365;77;27494;-83
2021/05/03 04:00:07;;;;;;;7.95;6.58;;;;;;;6.05;68.76;97048.56;1826947;77;25745;-83
2021/05/03 04:02:35;;;;;;;7.62;6.58;;;;;;;6.05;68.63;97045.89;1818195;77;25723;-84
2021/05/03 04:05:32;;;;;;;8.35;6.87;;;;;;;6.07;68.61;97051.89;1837742;77;25825;-84
2021/05/03 04:07:59;;;;;;;9.78;6.37;;;;;;;6.11;68.53;97051.00;1818244;77;25677;-83
2021/05/03 04:10:35;;;;;;;7.17;6.08;;;;;;;6.12;68.39;97062.88;1837159;77;27486;-82
2021/05/03 04:13:21;;;;;;;7.70;6.30;;;;;;;6.13;68.38;97056.50;1847187;77;25702;-84
2021/05/03 04:21:18;;;;;;;8.50;6.22;;;;;;;6.26;67.89;97061.16;1828049;77;25735;-83
2021/05/03 04:24:04;;;;;;;7.47;6.17;;;;;;;6.27;67.81;97064.66;1835757;77;27481;-83
2021/05/03 04:26:27;;;;;;;8.25;6.75;;;;;;;6.27;67.67;97055.28;1822808;77;25758;-84
2021/05/03 04:28:55;;;;;;;9.10;6.62;;;;;;;6.30;67.62;97060.23;1834960;77;25673;-84
2021/05/03 04:31:24;;;;;;;18.27;10.13;;;;;;;6.27;67.58;97060.13;1835575;77;27155;-84
2021/05/03 04:33:52;;;;;;;10.93;7.12;;;;;;;6.34;67.68;97058.84;1845693;77;25873;-84
2021/05/03 04:36:20;;;;;;;9.20;7.10;;;;;;;6.38;67.56;97063.62;1846483;77;27416;-86
2021/05/03 04:38:48;;;;;;;10.35;7.53;;;;;;;6.41;67.41;97067.23;1830082;77;25729;-86
2021/05/03 04:41:16;;;;;;;11.50;6.85;;;;;;;6.39;67.29;97074.67;1842208;77;25796;-83
2021/05/03 04:43:44;;;;;;;9.53;6.60;;;;;;;6.44;67.23;97055.30;1827875;77;25781;-87
2021/05/03 04:46:11;;;;;;;9.20;6.10;;;;;;;6.45;67.03;97055.12;1851537;77;25684;-84
2021/05/03 04:48:39;;;;;;;8.40;5.70;;;;;;;6.44;66.95;97054.80;1829386;77;27544;-84
2021/05/03 04:51:07;;;;;;;6.28;5.47;;;;;;;6.44;66.89;97055.30;1843468;77;25717;-82
2021/05/03 04:53:34;;;;;;;6.85;5.90;;;;;;;6.43;66.82;97069.73;1849035;77;25761;-84
2021/05/03 04:56:04;;;;;;;8.28;6.05;;;;;;;6.41;66.76;97077.13;1851552;77;26755;-84
2021/05/03 04:58:31;;;;;;;8.25;6.50;;;;;;;6.40;66.76;97084.89;1848624;77;25824;-84
2021/05/03 05:00:58;;;;;;;7.03;6.10;;;;;;;6.37;66.71;97090.12;1844696;77;28474;-83
2021/05/03 05:03:26;;;;;;;8.23;5.83;;;;;;;6.35;66.72;97086.80;1847557;77;26266;-83
2021/05/03 05:05:53;;;;;;;7.45;5.72;;;;;;;6.36;66.62;97099.69;1818004;77;25693;-83
2021/05/03 05:08:22;;;;;;;6.42;5.50;;;;;;;6.38;66.44;97098.99;1817906;77;25843;-83
2021/05/03 05:10:49;;;;;;;7.20;6.17;;;;;;;6.37;66.38;97098.16;1837104;77;25855;-85
2021/05/03 05:13:16;;;;;;;6.17;5.28;;;;;;;6.39;66.27;97093.44;1825666;77;28469;-84
2021/05/03 05:15:44;;;;;;;7.37;5.60;;;;;;;6.42;66.23;97103.75;1828307;77;25826;-84
2021/05/03 05:18:11;;;;;;;5.62;5.10;;;;;;;6.46;66.19;97117.11;1844365;77;25683;-85
2021/05/03 05:20:39;;;;;;;6.90;5.60;;;;;;;6.49;66.23;97121.27;1849357;77;27120;-84
2021/05/03 05:23:09;;;;;;;6.80;5.17;;;;;;;6.47;66.37;97116.59;1851153;77;25701;-85
2021/05/03 05:25:37;;;;;;;5.05;4.00;;;;;;;6.53;66.64;97127.87;1831735;77;27490;-87
2021/05/03 05:28:05;;;;;;;4.50;4.10;;;;;;;6.61;66.24;97137.16;1841554;77;25694;-85
2021/05/03 05:30:32;;;;;;;4.25;3.50;;;;;;;6.60;66.05;97124.77;1818066;77;25862;-85
2021/05/03 05:32:59;;;;;;;3.58;3.08;;;;;;;6.63;65.81;97120.36;1845889;77;25894;-84
2021/05/03 05:35:27;;;;;;;4.85;3.60;;;;;;;6.66;65.57;97126.66;1851430;77;26215;-85
2021/05/03 05:37:54;;;;;;;4.50;3.37;;;;;;;6.69;65.38;97137.00;1826174;77;28501;-86
2021/05/03 05:40:21;;;;;;;6.35;4.08;;;;;;;6.70;65.16;97134.64;1826045;77;25816;-85
2021/05/03 05:42:48;;;;;;;4.95;3.37;;;;;;;6.69;64.95;97124.94;1836549;77;25421;-88
2021/05/03 05:45:16;;;;;;;4.30;3.85;;;;;;;6.71;64.74;97138.16;1846364;77;25855;-86
2021/05/03 05:47:43;;;;;;;5.87;3.72;;;;;;;6.74;64.75;97137.27;1822606;77;25865;-87
2021/05/03 05:50:11;;;;;;;5.05;4.00;;;;;;;6.78;64.50;97141.20;1813993;79;27493;-85
2021/05/03 05:52:38;;;;;;;5.70;3.85;;;;;;;6.80;64.37;97136.48;1840804;77;26274;-85
2021/05/03 05:55:06;;;;;;;6.35;3.77;;;;;;;6.81;64.16;97134.63;1852423;77;25768;-85
2021/05/03 05:57:33;;;;;;;4.42;3.90;;;;;;;6.79;64.04;97136.16;1828484;77;25872;-84
2021/05/03 06:00:01;;;;;;;5.83;4.58;;;;;;;6.78;64.08;97139.03;1808695;77;25858;-84
2021/05/03 06:02:28;;;;;;;6.62;4.92;;;;;;;6.79;64.34;97136.16;1832753;77;28430;-85
2021/05/03 06:04:55;;;;;;;6.50;5.22;;;;;;;6.86;64.47;97141.08;1818812;77;26334;-85
2021/05/03 06:07:23;;;;;;;6.25;5.08;;;;;;;6.88;64.74;97140.35;1796779;79;25744;-83
2021/05/03 06:09:51;;;;;;;5.05;4.17;;;;;;;6.94;64.60;97136.08;1808773;77;27324;-86
2021/05/03 06:12:18;;;;;;;5.65;4.30;;;;;;;6.96;64.49;97132.69;1820543;77;25367;-84
2021/05/03 06:14:45;;;;;;;5.97;5.00;;;;;;;6.99;64.56;97139.02;1804973;78;27499;-84
2021/05/03 06:17:15;;;;;;;6.17;4.50;;;;;;;7.01;64.42;97139.62;1780205;78;25881;-85
2021/05/03 06:19:42;;;;;;;5.33;4.22;;;;;;;7.06;64.40;97141.73;1815404;78;26256;-84
2021/05/03 06:22:09;;;;;;;5.15;3.60;;;;;;;7.16;64.40;97156.97;1751941;79;25824;-85
2021/05/03 06:24:36;;;;;;;5.12;4.37;;;;;;;7.20;64.19;97155.56;1763768;80;25826;-85
2021/05/03 06:27:04;;;;;;;5.70;4.92;;;;;;;7.26;64.25;97150.73;1763746;81;27012;-85
2021/05/03 06:29:31;;;;;;;6.55;4.20;;;;;;;7.35;64.15;97155.47;1763693;81;25772;-86
2021/05/03 06:31:59;;;;;;;4.42;3.98;;;;;;;7.40;63.89;97165.08;1763625;81;25920;-85
2021/05/03 06:34:29;;;;;;;10.45;6.05;;;;;;;7.44;63.62;97161.81;1763740;81;26268;-85
2021/05/03 06:36:59;;;;;;;8.25;4.35;;;;;;;7.45;63.42;97168.84;1763665;81;25893;-85
2021/05/03 06:39:27;;;;;;;5.08;3.08;;;;;;;7.47;63.40;97170.83;1762880;81;27513;-86
2021/05/03 06:41:55;;;;;;;6.90;3.62;;;;;;;7.50;63.19;97171.75;1767142;80;25729;-85
2021/05/03 06:44:22;;;;;;;9.10;5.22;;;;;;;7.55;62.82;97173.34;1767055;80;25719;-84
2021/05/03 06:46:49;;;;;;;5.67;3.80;;;;;;;7.61;62.94;97168.22;1842487;77;25842;-85
2021/05/03 06:49:17;;;;;;;5.08;3.62;;;;;;;7.71;62.92;97171.38;1846985;77;25736;-85
2021/05/03 06:51:45;;;;;;;5.40;4.22;;;;;;;7.74;62.72;97181.70;1842502;77;27552;-85
2021/05/03 06:54:12;;;;;;;7.45;4.65;;;;;;;7.64;62.16;97179.89;1839106;77;25766;-85
2021/05/03 06:56:40;;;;;;;5.60;4.30;;;;;;;7.64;62.14;97169.14;1771125;80;25754;-86
2021/05/03 06:59:07;;;;;;;3.77;3.33;;;;;;;7.64;62.09;97171.83;1777161;80;27198;-86
2021/05/03 07:01:35;;;;;;;4.92;3.22;;;;;;;7.67;62.24;97171.44;1834442;77;26192;-84
2021/05/03 07:04:02;;;;;;;6.22;4.05;;;;;;;7.65;61.91;97172.15;1823261;77;27438;-84
2021/05/03 07:06:31;;;;;;;4.70;3.50;;;;;;;7.65;61.91;97168.95;1842130;77;25365;-85
2021/05/03 07:08:58;;;;;;;5.83;4.03;;;;;;;7.63;61.95;97179.58;1841594;77;25723;-84
2021/05/03 07:11:29;;;;;;;5.03;3.90;;;;;;;7.58;61.91;97181.02;1841863;77;26325;-86
2021/05/03 07:13:57;;;;;;;3.70;3.20;;;;;;;7.61;61.96;97181.66;1800056;77;25729;-84
2021/05/03 07:16:24;;;;;;;7.15;3.92;;;;;;;7.70;62.04;97176.42;1833942;77;27587;-84
2021/05/03 07:18:51;;;;;;;6.60;3.50;;;;;;;7.79;62.13;97168.51;1834972;77;25762;-83
2021/05/03 07:21:19;;;;;;;7.00;3.10;;;;;;;7.84;61.91;97174.13;1839771;77;25715;-86
2021/05/03 07:23:49;;;;;;;4.10;2.90;;;;;;;7.84;61.58;97176.81;1836708;77;26541;-85
2021/05/03 07:26:16;;;;;;;3.12;2.72;;;;;;;7.90;61.25;97174.66;1834942;77;25786;-85
2021/05/03 07:28:44;;;;;;;8.18;4.28;;;;;;;7.95;61.06;97176.23;1833595;77;28449;-86
2021/05/03 07:31:12;;;;;;;10.28;6.22;;;;;;;8.03;61.09;97173.37;1829502;77;26436;-85
2021/05/03 07:33:39;;;;;;;9.73;4.95;;;;;;;8.10;60.99;97169.34;1835427;77;25816;-86
2021/05/03 07:36:07;;;;;;;11.60;6.87;;;;;;;8.14;60.42;97166.06;1829110;77;26797;-85
2021/05/03 07:38:34;;;;;;;7.40;4.47;;;;;;;8.37;60.58;97167.09;1828618;77;25797;-85
2021/05/03 07:41:02;;;;;;;4.92;3.70;;;;;;;8.54;60.39;97164.86;1832237;77;27489;-86
2021/05/03 07:43:29;;;;;;;9.10;4.40;;;;;;;8.59;60.34;97167.75;1813306;77;26006;-86
2021/05/03 07:45:57;;;;;;;5.90;3.95;;;;;;;8.62;60.22;97180.80;1830981;77;25754;-87
2021/05/03 07:48:24;;;;;;;5.00;3.95;;;;;;;8.60;60.17;97193.63;1851501;77;26754;-84
2021/05/03 07:50:52;;;;;;;7.55;5.85;;;;;;;8.54;60.11;97197.15;1826335;76;25721;-84
2021/05/03 07:53:19;;;;;;;5.45;4.28;;;;;;;8.46;60.14;97200.00;1831625;77;27453;-85
2021/05/03 07:55:46;;;;;;;5.78;4.10;;;;;;;8.34;60.31;97201.63;1839861;77;25709;-87
2021/05/03 07:58:14;;;;;;;4.97;4.20;;;;;;;8.25;60.59;97224.64;1817885;77;25768;-84
2021/05/03 08:00:41;;;;;;;4.37;3.85;;;;;;;8.23;60.51;97238.79;1838561;77;25816;-85
2021/05/03 08:03:09;;;;;;;5.72;4.47;;;;;;;8.16;60.74;97237.12;1840725;77;25736;-86
2021/05/03 08:05:36;;;;;;;6.72;4.87;;;;;;;8.01;60.83;97235.91;1818052;77;27453;-86
2021/05/03 08:08:05;;;;;;;6.03;4.50;;;;;;;7.86;60.84;97237.37;1841397;77;25315;-85
2021/05/03 08:10:33;;;;;;;5.70;4.22;;;;;;;7.88;61.12;97235.83;1833685;77;25715;-85
2021/05/03 08:13:00;;;;;;;8.23;4.70;;;;;;;8.19;61.19;97239.41;1827623;77;25818;-85
2021/05/03 08:15:28;;;;;;;7.87;4.15;;;;;;;8.70;61.00;97241.66;1812443;77;25812;-85
2021/05/03 08:17:55;;;;;;;5.30;3.90;;;;;;;9.28;60.88;97233.38;1840289;77;27491;-85
2021/05/03 08:20:23;;;;;;;4.75;3.80;;;;;;;9.90;60.58;97234.75;1839058;77;26081;-85
2021/05/03 08:22:52;;;;;;;5.10;3.85;;;;;;;10.03;59.72;97227.95;1841387;77;25765;-88
2021/05/03 08:25:19;;;;;;;5.08;4.35;;;;;;;10.21;59.51;97230.84;1849919;77;25810;-84
2021/05/03 08:27:47;;;;;;;9.33;5.50;;;;;;;10.13;59.10;97233.75;1849924;77;25806;-83
2021/05/03 08:30:16;;;;;;;7.28;4.78;;;;;;;9.82;58.82;97239.83;1848246;77;27482;-86
2021/05/03 08:32:43;;;;;;;5.05;4.50;;;;;;;9.66;59.01;97238.39;1830959;77;25794;-84
2021/05/03 08:35:10;;;;;;;7.37;4.67;;;;;;;9.59;59.14;97251.06;1845518;77;25785;-85
2021/05/03 08:37:38;;;;;;;5.45;4.42;;;;;;;9.51;59.13;97247.77;1842401;77;26072;-85
2021/05/03 08:40:07;;;;;;;5.60;4.75;;;;;;;9.35;59.36;97254.39;1850989;77;25688;-85
2021/05/03 08:42:34;;;;;;;5.95;4.72;;;;;;;9.14;59.47;97258.12;1850027;77;27492;-85
2021/05/03 08:45:02;;;;;;;5.47;4.55;;;;;;;8.86;59.65;97265.52;1808196;77;25801;-86
2021/05/03 08:47:34;;;;;;;4.80;4.12;;;;;;;8.59;59.70;97272.16;1798477;77;25965;-85
2021/05/03 08:50:09;;;;;;;4.80;3.80;;;;;;;8.47;59.99;97276.98;1802852;77;26030;-85
2021/05/03 08:52:40;;;;;;;4.15;3.62;;;;;;;8.34;60.43;97278.27;1841877;77;25802;-85
2021/05/03 08:55:08;;;;;;;5.37;3.62;;;;;;;8.34;60.38;97282.30;1834257;77;28216;-88
2021/05/03 08:57:35;;;;;;;5.10;4.17;;;;;;;8.34;60.13;97283.65;1813038;77;25824;-88
2021/05/03 09:00:07;;;;;;;5.17;3.90;;;;;;;8.24;59.61;97283.48;1803454;77;26291;-86
2021/05/03 09:02:35;;;;;;;4.12;3.35;;;;;;;8.23;59.36;97286.36;1842416;77;25865;-86
2021/05/03 09:05:03;;;;;;;3.33;2.87;;;;;;;8.48;59.15;97291.58;1817239;77;25742;-84
2021/05/03 09:07:30;;;;;;;4.30;3.10;;;;;;;9.07;59.17;97296.81;1806323;77;27483;-84
2021/05/03 09:09:57;;;;;;;3.30;2.90;;;;;;;9.90;58.61;97277.89;1842416;77;25796;-85
2021/05/03 09:12:26;;;;;;;5.12;3.50;;;;;;;10.74;57.88;97287.30;1803554;77;25855;-86
2021/05/03 09:15:00;;;;;;;3.40;2.77;;;;;;;11.29;55.13;97287.58;1822929;77;25875;-85
2021/05/03 09:17:34;;;;;;;3.08;2.30;;;;;;;11.57;54.90;97273.13;1821263;77;25760;-87
2021/05/03 09:20:16;;;;;;;4.12;2.98;;;;;;;11.96;54.61;97269.77;1819548;77;29014;-86
2021/05/03 09:22:52;;;;;;;7.28;3.25;;;;;;;11.48;50.88;97285.23;1811345;77;25735;-84
2021/05/03 09:25:32;;;;;;;3.42;2.58;;;;;;;11.48;51.86;97277.13;1824920;77;25754;-86
2021/05/03 09:31:00;;;;;;;3.85;2.70;;;;;;;11.09;50.91;97287.20;1852637;76;26546;-85
2021/05/03 09:33:33;;;;;;;;;;;;;;;10.74;51.19;97279.20;1855164;76;25759;-83
2021/05/03 09:36:07;;;;;;;4.45;2.60;;;;;;;10.50;51.24;97290.72;1842826;76;27472;-84
2021/05/03 09:38:49;;;;;;;7.47;2.85;;;;;;;10.23;51.15;97284.06;1839127;77;26314;-84
2021/05/03 09:41:24;;;;;;;3.55;2.08;;;;;;;10.14;50.90;97291.22;1846778;76;26585;-84
2021/05/03 09:44:08;;;;;;;3.85;2.70;;;;;;;10.21;51.29;97287.48;1842202;77;25734;-84
2021/05/03 09:46:40;;;;;;;5.25;3.55;;;;;;;10.38;51.76;97291.91;1821908;77;26305;-85
2021/05/03 09:49:19;;;;;;;6.92;4.62;;;;;;;10.73;51.71;97294.56;1818895;77;27699;-86
2021/05/03 09:51:56;;;;;;;6.08;3.90;;;;;;;11.23;51.65;97292.52;1818870;77;25773;-85
2021/05/03 09:54:28;;;;;;;4.25;2.83;;;;;;;11.36;50.71;97295.93;1818682;77;25686;-84
2021/05/03 09:57:06;;;;;;;5.03;2.80;;;;;;;11.40;51.21;97294.98;1818375;77;26343;-85
2021/05/03 09:59:44;;;;;;;4.70;2.80;;;;;;;11.50;50.83;97285.86;1804376;77;25819;-85
2021/05/03 10:02:31;;;;;;;4.42;2.70;;;;;;;11.63;51.30;97280.34;1818399;77;27500;-84
2021/05/03 10:05:06;;;;;;;5.55;3.60;;;;;;;11.17;49.68;97301.79;1819969;77;25360;-85
2021/05/03 10:07:35;;;;;;;3.75;2.42;;;;;;;10.91;49.76;97293.00;1831588;77;26344;-86
2021/05/03 10:10:10;;;;;;;4.47;3.25;;;;;;;10.69;49.68;97301.95;1819741;77;26204;-86
2021/05/03 10:12:36;;;;;;;4.12;2.90;;;;;;;10.51;50.08;97308.55;1831784;77;25781;-84
2021/05/03 10:15:11;;;;;;;7.35;2.45;;;;;;;10.36;49.82;97321.80;1810331;76;27494;-84
2021/05/03 10:17:40;;;;;;;4.12;2.20;;;;;;;10.17;49.23;97309.13;1818260;77;25670;-88
2021/05/03 10:20:09;;;;;;;4.85;2.83;;;;;;;10.04;48.97;97319.95;1818730;77;25809;-85
2021/05/03 10:22:37;;;;;;;4.50;2.70;;;;;;;9.96;49.69;97328.27;1818720;77;25818;-83
2021/05/03 10:25:09;;;;;;;5.53;3.33;;;;;;;10.00;49.77;97322.77;1806371;77;25794;-86
2021/05/03 10:27:43;;;;;;;6.95;3.52;;;;;;;9.97;49.72;97330.76;1818671;77;27553;-84
2021/05/03 10:30:18;;;;;;;5.28;3.17;;;;;;;9.70;49.59;97330.45;1841460;77;26437;-86
2021/05/03 10:33:05;;;;;;;6.65;3.60;;;;;;;9.62;50.64;97330.67;1836816;77;25850;-82
2021/05/03 10:35:46;;;;;;;6.55;3.70;;;;;;;9.52;50.97;97332.44;1824905;77;25326;-84
2021/05/03 10:38:36;;;;;;;8.33;3.95;;;;;;;9.53;51.45;97330.05;1833874;77;25387;-84
2021/05/03 10:41:26;;;;;;;8.58;5.58;;;;;;;9.70;51.91;97332.63;1851191;77;27522;-84
2021/05/03 10:44:17;;;;;;;9.95;6.67;;;;;;;9.83;52.20;97329.62;1848853;77;26145;-85
2021/05/03 10:49:38;;;;;;;15.65;8.83;;;;;;;10.34;52.32;97314.43;1843646;77;25806;-86
2021/05/03 10:52:08;;;;;;;7.95;4.60;;;;;;;11.07;52.25;97316.82;1846102;77;25746;-85
2021/05/03 10:54:42;;;;;;;9.20;4.75;;;;;;;11.61;50.99;97313.52;1808600;77;27478;-85
2021/05/03 10:57:20;;;;;;;7.20;3.30;;;;;;;12.10;51.55;97313.23;1846792;77;26370;-86
2021/05/03 10:59:55;;;;;;;6.53;3.75;;;;;;;12.74;51.08;97297.02;1843250;77;25792;-85
2021/05/03 11:02:26;;;;;;;4.92;3.30;;;;;;;13.42;50.96;97304.84;1851629;77;26175;-86
2021/05/03 11:05:24;;;;;;;4.20;3.07;;;;;;;13.83;50.36;97306.18;1844285;77;25701;-86
2021/05/03 11:08:09;;;;;;;4.92;3.30;;;;;;;14.36;49.76;97298.46;1847905;77;28430;-85
2021/05/03 11:11:03;;;;;;;5.03;3.35;;;;;;;14.53;48.28;97299.40;1842450;77;25309;-85
2021/05/03 11:13:45;;;;;;;5.62;3.27;;;;;;;14.68;48.08;97298.38;1839584;77;26356;-86
2021/05/03 11:16:33;;;;;;;4.80;3.37;;;;;;;14.53;47.75;97298.04;1832347;77;33079;-85
2021/05/03 11:19:24;;;;;;;5.83;3.10;;;;;;;14.28;47.06;97300.16;1848115;77;25765;-85
2021/05/03 11:21:52;;;;;;;4.28;3.27;;;;;;;14.06;46.77;97306.19;1819578;77;27471;-85
2021/05/03 11:24:29;;;;;;;4.28;2.67;;;;;;;13.59;46.63;97306.67;1831269;77;26105;-86
2021/05/03 11:26:58;;;;;;;5.53;3.22;;;;;;;13.40;46.72;97312.41;1830199;77;25771;-85
2021/05/03 11:29:32;;;;;;;5.78;3.10;;;;;;;13.34;46.75;97312.27;1818758;77;26241;-85
2021/05/03 11:31:55;;;;;;;5.42;2.92;;;;;;;13.26;47.04;97311.77;1826438;77;25741;-84
2021/05/03 11:34:27;;;;;;;4.90;3.10;;;;;;;13.06;46.87;97324.19;1839052;76;27373;-85
2021/05/03 11:37:02;;;;;;;4.42;3.33;;;;;;;12.74;46.42;97329.52;1820753;77;25866;-89
2021/05/03 11:39:42;;;;;;;4.70;3.22;;;;;;;12.15;47.03;97344.52;1812118;77;26305;-88
2021/05/03 11:42:34;;;;;;;5.20;3.45;;;;;;;11.52;47.29;97367.04;1833370;77;25819;-84
2021/05/03 11:44:57;;;;;;;5.78;2.50;;;;;;;10.90;48.38;97372.36;1834175;77;25846;-86
2021/05/03 11:47:38;;;;;;;4.28;2.90;;;;;;;10.05;49.76;97360.71;1820452;77;27656;-86
2021/05/03 11:50:07;;;;;;;3.22;2.80;;;;;;;9.38;50.97;97368.48;1824663;77;25694;-85
2021/05/03 11:52:39;;;;;;;6.00;3.25;;;;;;;8.99;52.37;97371.37;1825716;77;25850;-85
2021/05/03 11:55:17;;;;;;;5.92;3.10;;;;;;;8.78;53.14;97368.82;1838720;77;25842;-85
2021/05/03 11:57:46;;;;;;;5.58;3.42;;;;;;;8.89;53.65;97362.02;1817826;77;25370;-86
2021/05/03 12:00:19;;;;;;;5.28;4.30;;;;;;;8.95;54.21;97357.99;1823676;77;27585;-86
2021/05/03 12:02:47;;;;;;;;;;;;;;;8.84;55.37;97361.27;1818101;77;26125;-85
2021/05/03 12:05:19;;;;;;;9.80;5.70;;;;;;;8.72;55.57;97360.19;1833082;77;25720;-83